Neon, Kentucky
Current Conditions -  °F | °C
As of 9:35 AM on Tuesday 21 Oct 2014 (Local Time) from KLNP Reporting Station
Overcast Overcast  
Wind Chill: 52°   Ceiling: 400
Heat Index: 52°   Visibility: 7mi
Dew Point: 52°   Wind: 6mph
Humidity: 100%   Direction: 250°WSW
Pressure: 30"   Gusts: NA
Location:  37.19°N, 82.71°W
Report Text: KLNP 211335Z AUTO 25005KT 7SM OVC004 11/11 A3000 RMK AO2
Loading
Personal Weather Stations






























Interactive Weather Map
Tropical Storm Tracking
New forecast layout! Learn more

10-Day Weather Forecast

Advertisements
Track Severe Weather on mobile